sensor_id;sensor_type;location;lat;lon;timestamp;P1;durP1;ratioP1;P2;durP2;ratioP2
39698;SDS011;25372;50.582;12.250;2023-04-25T00:03:35;2.13;;;1.70;;
39698;SDS011;25372;50.582;12.250;2023-04-25T00:13:59;2.60;;;1.40;;
39698;SDS011;25372;50.582;12.250;2023-04-25T00:24:22;2.58;;;1.73;;
39698;SDS011;25372;50.582;12.250;2023-04-25T00:34:44;5.97;;;1.92;;
39698;SDS011;25372;50.582;12.250;2023-04-25T00:45:05;6.47;;;2.15;;
39698;SDS011;25372;50.582;12.250;2023-04-25T00:55:31;8.00;;;2.35;;
39698;SDS011;25372;50.582;12.250;2023-04-25T01:05:53;5.72;;;2.63;;
39698;SDS011;25372;50.582;12.250;2023-04-25T01:16:16;7.20;;;3.05;;
39698;SDS011;25372;50.582;12.250;2023-04-25T01:26:38;4.32;;;2.15;;
39698;SDS011;25372;50.582;12.250;2023-04-25T01:37:03;3.83;;;2.13;;
39698;SDS011;25372;50.582;12.250;2023-04-25T01:47:25;4.50;;;2.70;;
39698;SDS011;25372;50.582;12.250;2023-04-25T01:57:46;4.57;;;2.45;;
39698;SDS011;25372;50.582;12.250;2023-04-25T02:08:09;3.47;;;2.15;;
39698;SDS011;25372;50.582;12.250;2023-04-25T02:18:30;5.43;;;1.85;;
39698;SDS011;25372;50.582;12.250;2023-04-25T02:28:54;7.00;;;2.88;;
39698;SDS011;25372;50.582;12.250;2023-04-25T02:39:15;4.28;;;2.08;;
39698;SDS011;25372;50.582;12.250;2023-04-25T02:49:36;5.65;;;2.88;;
39698;SDS011;25372;50.582;12.250;2023-04-25T02:59:57;3.97;;;2.28;;
39698;SDS011;25372;50.582;12.250;2023-04-25T03:10:20;4.95;;;2.15;;
39698;SDS011;25372;50.582;12.250;2023-04-25T03:20:41;5.35;;;3.20;;
39698;SDS011;25372;50.582;12.250;2023-04-25T03:31:04;4.63;;;2.33;;
39698;SDS011;25372;50.582;12.250;2023-04-25T03:41:24;3.35;;;2.17;;
39698;SDS011;25372;50.582;12.250;2023-04-25T03:51:52;5.10;;;3.00;;
39698;SDS011;25372;50.582;12.250;2023-04-25T04:02:12;3.92;;;2.45;;
39698;SDS011;25372;50.582;12.250;2023-04-25T04:12:35;5.55;;;2.30;;
39698;SDS011;25372;50.582;12.250;2023-04-25T04:22:57;9.68;;;3.67;;
39698;SDS011;25372;50.582;12.250;2023-04-25T04:33:20;5.60;;;2.78;;
39698;SDS011;25372;50.582;12.250;2023-04-25T04:43:49;4.88;;;3.38;;
39698;SDS011;25372;50.582;12.250;2023-04-25T04:54:30;5.65;;;2.88;;
39698;SDS011;25372;50.582;12.250;2023-04-25T05:05:05;3.90;;;2.70;;
39698;SDS011;25372;50.582;12.250;2023-04-25T05:15:47;6.25;;;2.95;;
39698;SDS011;25372;50.582;12.250;2023-04-25T05:26:18;5.22;;;3.20;;
39698;SDS011;25372;50.582;12.250;2023-04-25T05:36:55;2.83;;;2.17;;
39698;SDS011;25372;50.582;12.250;2023-04-25T05:47:16;2.67;;;1.98;;
39698;SDS011;25372;50.582;12.250;2023-04-25T05:57:54;4.13;;;2.22;;
39698;SDS011;25372;50.582;12.250;2023-04-25T06:08:16;6.45;;;2.95;;
39698;SDS011;25372;50.582;12.250;2023-04-25T06:18:38;4.88;;;3.17;;
39698;SDS011;25372;50.582;12.250;2023-04-25T06:28:59;6.97;;;2.90;;
39698;SDS011;25372;50.582;12.250;2023-04-25T06:39:21;5.30;;;3.15;;
39698;SDS011;25372;50.582;12.250;2023-04-25T06:49:42;6.32;;;4.05;;
39698;SDS011;25372;50.582;12.250;2023-04-25T07:00:06;3.97;;;2.97;;
39698;SDS011;25372;50.582;12.250;2023-04-25T07:10:30;4.15;;;2.65;;
39698;SDS011;25372;50.582;12.250;2023-04-25T07:20:53;5.75;;;2.70;;
39698;SDS011;25372;50.582;12.250;2023-04-25T07:31:14;4.88;;;2.20;;
39698;SDS011;25372;50.582;12.250;2023-04-25T07:41:38;6.18;;;2.53;;
39698;SDS011;25372;50.582;12.250;2023-04-25T07:52:02;1.93;;;1.77;;
39698;SDS011;25372;50.582;12.250;2023-04-25T08:02:25;7.82;;;2.38;;
39698;SDS011;25372;50.582;12.250;2023-04-25T08:12:48;3.80;;;1.67;;
39698;SDS011;25372;50.582;12.250;2023-04-25T08:23:10;2.50;;;1.58;;
39698;SDS011;25372;50.582;12.250;2023-04-25T08:33:37;4.25;;;2.15;;
39698;SDS011;25372;50.582;12.250;2023-04-25T08:44:23;1.80;;;1.60;;
39698;SDS011;25372;50.582;12.250;2023-04-25T08:54:44;2.50;;;2.17;;
39698;SDS011;25372;50.582;12.250;2023-04-25T09:05:13;5.38;;;1.95;;
39698;SDS011;25372;50.582;12.250;2023-04-25T09:15:46;4.40;;;2.20;;
39698;SDS011;25372;50.582;12.250;2023-04-25T09:26:27;3.45;;;2.00;;
39698;SDS011;25372;50.582;12.250;2023-04-25T09:36:54;2.88;;;1.90;;
39698;SDS011;25372;50.582;12.250;2023-04-25T09:47:36;8.77;;;2.22;;
39698;SDS011;25372;50.582;12.250;2023-04-25T09:58:00;3.70;;;2.35;;
39698;SDS011;25372;50.582;12.250;2023-04-25T10:08:29;5.47;;;2.72;;
39698;SDS011;25372;50.582;12.250;2023-04-25T10:18:52;3.55;;;2.25;;
39698;SDS011;25372;50.582;12.250;2023-04-25T10:29:15;5.28;;;3.03;;
39698;SDS011;25372;50.582;12.250;2023-04-25T10:39:43;3.17;;;2.63;;
39698;SDS011;25372;50.582;12.250;2023-04-25T10:50:06;5.22;;;3.00;;
39698;SDS011;25372;50.582;12.250;2023-04-25T11:00:28;4.00;;;2.87;;
39698;SDS011;25372;50.582;12.250;2023-04-25T11:10:51;6.88;;;3.55;;
39698;SDS011;25372;50.582;12.250;2023-04-25T11:21:13;3.83;;;1.75;;
39698;SDS011;25372;50.582;12.250;2023-04-25T11:31:35;6.35;;;1.85;;
39698;SDS011;25372;50.582;12.250;2023-04-25T11:41:56;4.57;;;1.20;;
39698;SDS011;25372;50.582;12.250;2023-04-25T11:52:18;4.95;;;1.83;;
39698;SDS011;25372;50.582;12.250;2023-04-25T12:02:42;1.70;;;1.50;;
39698;SDS011;25372;50.582;12.250;2023-04-25T12:13:18;1.48;;;1.38;;
39698;SDS011;25372;50.582;12.250;2023-04-25T12:23:40;2.47;;;1.55;;
39698;SDS011;25372;50.582;12.250;2023-04-25T12:34:02;6.97;;;1.75;;
39698;SDS011;25372;50.582;12.250;2023-04-25T12:44:23;3.38;;;1.45;;
39698;SDS011;25372;50.582;12.250;2023-04-25T12:54:46;3.22;;;2.10;;
39698;SDS011;25372;50.582;12.250;2023-04-25T13:05:07;2.17;;;1.05;;
39698;SDS011;25372;50.582;12.250;2023-04-25T13:15:29;1.80;;;1.70;;
39698;SDS011;25372;50.582;12.250;2023-04-25T13:25:50;6.88;;;1.65;;
39698;SDS011;25372;50.582;12.250;2023-04-25T13:36:12;2.80;;;1.58;;
39698;SDS011;25372;50.582;12.250;2023-04-25T13:46:33;12.93;;;2.05;;
39698;SDS011;25372;50.582;12.250;2023-04-25T13:56:55;1.83;;;1.30;;
39698;SDS011;25372;50.582;12.250;2023-04-25T14:07:18;4.97;;;1.52;;
39698;SDS011;25372;50.582;12.250;2023-04-25T14:17:41;5.53;;;1.35;;
39698;SDS011;25372;50.582;12.250;2023-04-25T14:28:05;9.65;;;1.80;;
39698;SDS011;25372;50.582;12.250;2023-04-25T14:38:27;2.47;;;1.90;;
39698;SDS011;25372;50.582;12.250;2023-04-25T14:48:48;7.63;;;2.10;;
39698;SDS011;25372;50.582;12.250;2023-04-25T14:59:10;3.60;;;1.77;;
39698;SDS011;25372;50.582;12.250;2023-04-25T15:09:31;4.22;;;2.88;;
39698;SDS011;25372;50.582;12.250;2023-04-25T15:19:53;2.28;;;1.27;;
39698;SDS011;25372;50.582;12.250;2023-04-25T15:30:14;5.25;;;1.67;;
39698;SDS011;25372;50.582;12.250;2023-04-25T15:40:38;1.25;;;1.17;;
39698;SDS011;25372;50.582;12.250;2023-04-25T15:50:58;1.23;;;1.00;;
39698;SDS011;25372;50.582;12.250;2023-04-25T16:01:20;4.60;;;1.00;;
39698;SDS011;25372;50.582;12.250;2023-04-25T16:11:42;3.28;;;1.75;;
39698;SDS011;25372;50.582;12.250;2023-04-25T16:22:05;1.00;;;0.85;;
39698;SDS011;25372;50.582;12.250;2023-04-25T16:32:27;0.70;;;0.70;;
39698;SDS011;25372;50.582;12.250;2023-04-25T16:42:49;1.50;;;0.98;;
39698;SDS011;25372;50.582;12.250;2023-04-25T16:53:10;4.72;;;1.85;;
39698;SDS011;25372;50.582;12.250;2023-04-25T17:03:32;5.10;;;1.20;;
39698;SDS011;25372;50.582;12.250;2023-04-25T17:13:53;1.30;;;1.08;;
39698;SDS011;25372;50.582;12.250;2023-04-25T17:24:15;1.40;;;1.30;;
39698;SDS011;25372;50.582;12.250;2023-04-25T17:34:36;0.82;;;0.80;;
39698;SDS011;25372;50.582;12.250;2023-04-25T17:44:59;5.88;;;1.10;;
39698;SDS011;25372;50.582;12.250;2023-04-25T17:55:20;1.08;;;1.02;;
39698;SDS011;25372;50.582;12.250;2023-04-25T18:05:43;2.78;;;1.08;;
39698;SDS011;25372;50.582;12.250;2023-04-25T18:16:05;1.92;;;1.33;;
39698;SDS011;25372;50.582;12.250;2023-04-25T18:26:27;1.63;;;1.40;;
39698;SDS011;25372;50.582;12.250;2023-04-25T18:36:48;1.77;;;1.00;;
39698;SDS011;25372;50.582;12.250;2023-04-25T18:47:11;5.78;;;1.33;;
39698;SDS011;25372;50.582;12.250;2023-04-25T18:57:32;3.13;;;1.75;;
39698;SDS011;25372;50.582;12.250;2023-04-25T19:07:54;2.53;;;1.05;;
39698;SDS011;25372;50.582;12.250;2023-04-25T19:18:15;1.65;;;1.00;;
39698;SDS011;25372;50.582;12.250;2023-04-25T19:28:37;1.42;;;1.27;;
39698;SDS011;25372;50.582;12.250;2023-04-25T19:38:58;1.20;;;1.02;;
39698;SDS011;25372;50.582;12.250;2023-04-25T19:49:23;4.43;;;1.43;;
39698;SDS011;25372;50.582;12.250;2023-04-25T19:59:45;1.10;;;1.00;;
39698;SDS011;25372;50.582;12.250;2023-04-25T20:10:08;0.80;;;0.80;;
39698;SDS011;25372;50.582;12.250;2023-04-25T20:20:32;3.05;;;1.00;;
39698;SDS011;25372;50.582;12.250;2023-04-25T20:30:54;7.35;;;2.13;;
39698;SDS011;25372;50.582;12.250;2023-04-25T20:41:15;1.30;;;1.20;;
39698;SDS011;25372;50.582;12.250;2023-04-25T20:51:37;1.65;;;1.35;;
39698;SDS011;25372;50.582;12.250;2023-04-25T21:01:57;12.45;;;1.73;;
39698;SDS011;25372;50.582;12.250;2023-04-25T21:12:19;2.28;;;1.00;;
39698;SDS011;25372;50.582;12.250;2023-04-25T21:22:40;0.77;;;0.77;;
39698;SDS011;25372;50.582;12.250;2023-04-25T21:33:08;0.60;;;0.60;;
39698;SDS011;25372;50.582;12.250;2023-04-25T21:43:29;1.48;;;1.35;;
39698;SDS011;25372;50.582;12.250;2023-04-25T21:53:51;0.65;;;0.65;;
39698;SDS011;25372;50.582;12.250;2023-04-25T22:04:12;0.95;;;0.82;;
39698;SDS011;25372;50.582;12.250;2023-04-25T22:14:34;1.15;;;0.82;;
39698;SDS011;25372;50.582;12.250;2023-04-25T22:24:56;3.30;;;1.20;;
39698;SDS011;25372;50.582;12.250;2023-04-25T22:35:18;2.92;;;1.58;;
39698;SDS011;25372;50.582;12.250;2023-04-25T22:45:38;2.28;;;1.00;;
39698;SDS011;25372;50.582;12.250;2023-04-25T22:56:01;1.80;;;0.88;;
39698;SDS011;25372;50.582;12.250;2023-04-25T23:06:22;2.55;;;1.05;;
39698;SDS011;25372;50.582;12.250;2023-04-25T23:16:44;2.50;;;1.20;;
39698;SDS011;25372;50.582;12.250;2023-04-25T23:27:05;2.83;;;1.23;;
39698;SDS011;25372;50.582;12.250;2023-04-25T23:37:27;2.83;;;1.52;;
39698;SDS011;25372;50.582;12.250;2023-04-25T23:47:50;3.30;;;1.13;;
39698;SDS011;25372;50.582;12.250;2023-04-25T23:58:12;2.25;;;1.60;;
